Time;durP1;ratioP1;P1;durP2;ratioP2;P2;SDS_P1;SDS_P2;PMS_P1;PMS_P2;Temp;Humidity;BMP_temperature;BMP_pressure;BME280_temperature;BME280_humidity;BME280_pressure;Samples;Min_cycle;Max_cycle;Signal;HPM_P1;HPM_P2
2022/05/13 00:02:24;;;;;;;1.92;1.00;;;;;;;24.10;40.56;99616.09;5091677;28;20048;-61
2022/05/13 00:04:50;;;;;;;2.88;1.02;;;;;;;24.08;40.74;99621.28;5091319;28;20044;-61
2022/05/13 00:07:15;;;;;;;1.60;0.98;;;;;;;24.10;40.90;99621.69;5091339;28;20380;-61
2022/05/13 00:09:56;;;;;;;2.03;1.00;;;;;;;24.11;40.74;99623.28;5091665;28;20051;-61
2022/05/13 00:12:22;;;;;;;1.70;1.00;;;;;;;24.10;40.88;99622.50;5091462;28;20064;-61
2022/05/13 00:14:48;;;;;;;1.52;0.90;;;;;;;24.08;40.79;99615.69;5091477;28;20051;-61
2022/05/13 00:17:15;;;;;;;2.13;1.10;;;;;;;24.09;40.97;99632.06;5091530;28;20746;-62
2022/05/13 00:19:40;;;;;;;2.22;1.10;;;;;;;24.08;40.93;99630.47;5091063;28;20056;-61
2022/05/13 00:22:05;;;;;;;1.63;1.00;;;;;;;24.06;40.99;99638.44;5091651;28;20292;-61
2022/05/13 00:24:31;;;;;;;1.48;0.98;;;;;;;24.05;41.08;99633.25;5091277;28;20040;-62
2022/05/13 00:26:57;;;;;;;1.85;0.98;;;;;;;24.04;41.05;99628.84;5091130;28;20504;-61
2022/05/13 00:29:22;;;;;;;1.77;1.00;;;;;;;24.04;40.97;99638.03;5091153;28;20079;-67
2022/05/13 00:31:48;;;;;;;1.58;1.00;;;;;;;24.04;41.05;99628.84;5091189;28;20095;-67
2022/05/13 00:34:14;;;;;;;1.80;1.05;;;;;;;24.04;41.00;99637.22;5091212;28;20043;-68
2022/05/13 00:36:40;;;;;;;1.50;1.00;;;;;;;24.04;41.16;99634.44;5089280;28;20109;-68
2022/05/13 00:39:06;;;;;;;1.60;1.00;;;;;;;24.04;41.11;99638.03;5091202;28;20055;-68
2022/05/13 00:41:31;;;;;;;2.15;1.10;;;;;;;24.02;41.02;99632.03;5090974;28;20530;-68
2022/05/13 00:43:57;;;;;;;3.95;1.00;;;;;;;24.02;40.93;99628.44;5091198;28;20040;-68
2022/05/13 00:46:26;;;;;;;2.42;0.93;;;;;;;24.02;41.10;99631.25;5091087;28;20051;-68
2022/05/13 00:48:52;;;;;;;1.92;1.20;;;;;;;24.02;40.99;99628.44;5090943;28;20499;-68
2022/05/13 00:51:26;;;;;;;1.50;1.00;;;;;;;24.02;40.98;99634.84;5091060;28;20048;-68
2022/05/13 00:53:52;;;;;;;1.83;1.10;;;;;;;24.01;41.02;99629.63;5090755;28;20048;-68
2022/05/13 00:56:19;;;;;;;1.40;0.90;;;;;;;24.02;41.11;99628.44;5090875;28;20066;-68
2022/05/13 00:58:47;;;;;;;1.27;0.80;;;;;;;24.00;41.06;99620.44;5090483;28;20130;-61
2022/05/13 01:01:13;;;;;;;1.95;1.10;;;;;;;24.01;41.12;99624.84;5089746;28;20047;-61
2022/05/13 01:03:40;;;;;;;2.92;1.10;;;;;;;23.99;40.99;99618.03;5090775;28;20408;-61
2022/05/13 01:06:10;;;;;;;1.67;1.00;;;;;;;23.99;40.95;99620.81;5090665;28;20048;-68
2022/05/13 01:08:36;;;;;;;1.80;1.00;;;;;;;23.99;40.96;99623.63;5126738;28;20063;-67
2022/05/13 01:11:06;;;;;;;1.70;1.00;;;;;;;23.95;41.06;99632.00;5131671;28;20043;-68
2022/05/13 01:13:33;;;;;;;1.65;0.95;;;;;;;23.94;41.06;99622.03;5131505;28;20039;-68
2022/05/13 01:15:58;;;;;;;1.83;0.88;;;;;;;23.97;41.05;99620.44;5131424;28;20043;-68
2022/05/13 01:18:35;;;;;;;2.25;1.00;;;;;;;23.94;41.16;99619.22;5131332;28;20399;-68
2022/05/13 01:21:03;;;;;;;1.73;1.08;;;;;;;23.95;40.98;99617.22;5131155;28;20043;-68
2022/05/13 01:23:30;;;;;;;1.55;0.95;;;;;;;23.96;41.14;99613.25;5131628;28;20521;-68
2022/05/13 01:26:02;;;;;;;1.52;0.95;;;;;;;23.95;41.08;99609.66;5131293;28;20046;-68
2022/05/13 01:28:32;;;;;;;1.75;1.00;;;;;;;23.93;41.29;99600.84;5131346;28;20051;-68
2022/05/13 01:31:00;;;;;;;1.75;1.02;;;;;;;23.88;41.22;99599.25;5131079;28;20050;-68
2022/05/13 01:33:27;;;;;;;1.50;0.93;;;;;;;23.90;41.27;99593.25;5131097;28;20324;-68
2022/05/13 01:35:56;;;;;;;1.38;0.93;;;;;;;23.92;41.33;99601.22;5131092;28;20074;-68
2022/05/13 01:38:24;;;;;;;1.40;0.80;;;;;;;23.91;41.44;99614.41;5130207;27;20039;-68
2022/05/13 01:40:50;;;;;;;2.20;1.10;;;;;;;23.89;41.19;99602.84;5130752;28;20047;-68
2022/05/13 01:43:16;;;;;;;1.80;1.00;;;;;;;23.89;41.44;99602.84;5130864;28;20054;-67
2022/05/13 01:45:41;;;;;;;1.90;1.00;;;;;;;23.87;41.36;99608.81;5130854;28;20043;-67
2022/05/13 01:48:08;;;;;;;1.58;0.88;;;;;;;23.85;41.58;99616.75;5131243;28;20411;-68
2022/05/13 01:50:35;;;;;;;1.50;0.98;;;;;;;23.86;41.34;99614.78;5131193;28;20053;-67
2022/05/13 01:53:01;;;;;;;2.08;1.23;;;;;;;23.85;41.56;99627.13;5130809;28;20076;-68
2022/05/13 01:55:26;;;;;;;1.40;0.90;;;;;;;23.84;41.41;99615.16;5130762;28;20042;-67
2022/05/13 01:57:52;;;;;;;1.65;1.02;;;;;;;23.85;41.40;99625.13;5130914;28;20068;-67
2022/05/13 02:00:18;;;;;;;2.20;1.02;;;;;;;23.86;41.30;99620.34;5130531;28;20380;-68
2022/05/13 02:05:28;;;;;;;1.23;0.80;;;;;;;23.83;41.30;99616.34;5130498;28;20091;-67
2022/05/13 02:07:54;;;;;;;1.70;1.00;;;;;;;23.83;41.32;99618.34;5130790;28;20055;-68
2022/05/13 02:10:20;;;;;;;1.63;1.00;;;;;;;23.83;41.27;99618.34;5130994;28;20071;-68
2022/05/13 02:12:46;;;;;;;1.65;1.00;;;;;;;23.80;41.50;99616.34;5130716;28;20091;-67
2022/05/13 02:15:11;;;;;;;1.88;1.00;;;;;;;23.82;41.19;99611.97;5130417;28;20126;-68
2022/05/13 02:17:37;;;;;;;1.50;0.98;;;;;;;23.81;41.16;99618.75;5130409;28;20043;-68
2022/05/13 02:20:07;;;;;;;1.50;0.70;;;;;;;23.80;41.28;99621.94;5130319;28;20045;-68
2022/05/13 02:22:33;;;;;;;2.00;1.02;;;;;;;23.82;41.02;99613.97;5130236;28;20046;-68
2022/05/13 02:24:59;;;;;;;2.38;1.20;;;;;;;23.78;41.15;99615.91;5130537;28;20035;-61
2022/05/13 02:27:25;;;;;;;1.67;1.08;;;;;;;23.78;41.18;99615.91;5130324;28;20126;-61
2022/05/13 02:29:50;;;;;;;1.38;0.95;;;;;;;23.76;41.30;99604.34;5130200;28;20094;-62
2022/05/13 02:32:16;;;;;;;2.13;1.10;;;;;;;23.79;41.28;99614.72;5130421;28;20039;-61
2022/05/13 02:34:42;;;;;;;1.80;0.93;;;;;;;23.79;41.30;99606.34;5130313;28;20429;-61
2022/05/13 02:37:07;;;;;;;1.70;0.90;;;;;;;23.79;41.18;99604.38;5130258;28;20515;-61
2022/05/13 02:39:33;;;;;;;1.88;1.10;;;;;;;23.78;41.28;99602.75;5130030;28;20047;-61
2022/05/13 02:41:58;;;;;;;1.63;0.90;;;;;;;23.78;41.26;99599.97;5130006;28;20043;-61
2022/05/13 02:44:25;;;;;;;1.90;0.90;;;;;;;23.77;41.10;99603.94;5130215;28;20050;-61
2022/05/13 02:46:51;;;;;;;1.98;1.10;;;;;;;23.74;40.99;99587.97;5129987;28;20061;-68
2022/05/13 02:49:17;;;;;;;1.83;1.10;;;;;;;23.78;41.05;99596.38;5131627;27;20073;-68
2022/05/13 02:51:45;;;;;;;1.80;0.98;;;;;;;23.75;41.19;99588.78;5118248;28;20406;-68
2022/05/13 02:54:11;;;;;;;1.92;1.08;;;;;;;23.76;41.21;99595.97;5113293;28;20054;-68
2022/05/13 02:56:36;;;;;;;1.83;0.98;;;;;;;23.79;41.11;99601.59;5113215;28;20419;-68
2022/05/13 02:59:03;;;;;;;1.67;0.90;;;;;;;23.77;41.08;99592.78;5113214;28;20083;-67
2022/05/13 03:01:28;;;;;;;1.35;0.90;;;;;;;23.74;41.07;99587.97;5112860;28;20100;-68
2022/05/13 03:03:54;;;;;;;1.52;0.90;;;;;;;23.76;41.15;99595.97;5112982;28;20031;-68
2022/05/13 03:06:20;;;;;;;1.42;0.80;;;;;;;23.73;41.06;99597.56;5112957;28;20089;-68
2022/05/13 03:08:47;;;;;;;1.23;0.80;;;;;;;23.72;41.02;99592.34;5112983;28;20054;-61
2022/05/13 03:11:13;;;;;;;1.67;0.90;;;;;;;23.72;41.09;99595.13;5112961;28;20061;-62
2022/05/13 03:13:39;;;;;;;1.55;0.80;;;;;;;23.71;40.99;99594.34;5112921;28;20051;-62
2022/05/13 03:16:27;;;;;;;1.70;0.90;;;;;;;23.70;41.18;99591.94;5112803;28;20040;-61
2022/05/13 03:18:55;;;;;;;1.77;1.10;;;;;;;23.70;41.08;99598.31;5112598;28;20035;-68
2022/05/13 03:21:22;;;;;;;1.52;0.90;;;;;;;23.69;41.04;99581.97;5112509;28;20047;-68
2022/05/13 03:23:48;;;;;;;1.70;1.00;;;;;;;23.68;41.19;99583.16;5092185;28;20040;-68
2022/05/13 03:26:16;;;;;;;1.80;1.00;;;;;;;23.67;41.19;99592.72;5092362;28;20124;-68
2022/05/13 03:28:41;;;;;;;1.70;1.00;;;;;;;23.68;41.13;99583.16;5092221;28;20048;-68
2022/05/13 03:31:07;;;;;;;2.13;1.10;;;;;;;23.68;41.12;99588.75;5092253;28;20048;-68
2022/05/13 03:33:33;;;;;;;1.60;0.88;;;;;;;23.69;41.18;99595.94;5092194;28;20040;-62
2022/05/13 03:35:58;;;;;;;1.92;1.13;;;;;;;23.67;41.46;99592.72;5092180;28;20217;-68
2022/05/13 03:38:24;;;;;;;1.80;1.00;;;;;;;23.67;41.50;99601.13;5092328;28;20579;-68
2022/05/13 03:40:49;;;;;;;1.75;1.17;;;;;;;23.67;41.56;99595.53;5092205;28;20043;-68
2022/05/13 03:43:15;;;;;;;1.73;1.08;;;;;;;23.67;41.53;99595.53;5091669;28;20477;-68
2022/05/13 03:45:41;;;;;;;1.45;0.98;;;;;;;23.70;41.65;99594.72;5091846;28;20055;-67
2022/05/13 03:48:07;;;;;;;1.52;1.02;;;;;;;23.67;41.64;99584.34;5091989;28;20423;-67
2022/05/13 03:50:36;;;;;;;1.65;1.00;;;;;;;23.66;41.75;99582.75;5091848;28;20174;-68
2022/05/13 03:53:02;;;;;;;2.78;1.05;;;;;;;23.66;41.85;99586.34;5091599;28;20130;-67
2022/05/13 03:55:28;;;;;;;2.88;1.20;;;;;;;23.66;41.85;99591.13;5091686;28;20051;-68
2022/05/13 03:57:53;;;;;;;1.50;1.00;;;;;;;23.65;41.91;99590.34;5091741;28;20044;-68
2022/05/13 04:00:19;;;;;;;2.00;1.10;;;;;;;23.63;41.79;99587.13;5090939;28;20036;-68
2022/05/13 04:02:44;;;;;;;1.55;1.10;;;;;;;23.64;41.99;99596.28;5091591;28;20040;-68
2022/05/13 04:10:40;;;;;;;1.55;1.00;;;;;;;23.60;41.92;99611.03;5091401;28;20070;-67
2022/05/13 04:16:04;;;;;;;1.55;1.00;;;;;;;23.58;42.11;99601.44;5132472;28;20165;-67
2022/05/13 04:18:34;;;;;;;1.50;1.10;;;;;;;23.57;42.52;99606.19;5132464;27;20050;-62
2022/05/13 04:21:00;;;;;;;1.65;1.00;;;;;;;23.59;42.40;99614.19;5132440;28;20055;-62
2022/05/13 04:23:26;;;;;;;1.83;1.20;;;;;;;23.57;42.29;99611.78;5132338;28;20416;-61
2022/05/13 04:25:51;;;;;;;1.30;0.90;;;;;;;23.59;42.37;99605.81;5132279;28;20035;-68
2022/05/13 04:28:17;;;;;;;1.63;1.00;;;;;;;23.58;42.28;99607.81;5132011;28;20088;-68
2022/05/13 04:30:45;;;;;;;1.73;1.08;;;;;;;23.59;42.45;99603.03;5132091;27;20039;-68
2022/05/13 04:33:12;;;;;;;1.40;1.00;;;;;;;23.59;42.58;99606.63;5132312;27;20047;-68
2022/05/13 04:35:38;;;;;;;1.58;0.93;;;;;;;23.59;42.45;99609.41;5131953;28;20043;-61
2022/05/13 04:38:03;;;;;;;1.75;1.00;;;;;;;23.57;42.51;99603.41;5132259;28;20441;-61
2022/05/13 04:40:29;;;;;;;1.70;1.08;;;;;;;23.58;42.62;99607.00;5132132;28;20043;-62
2022/05/13 04:42:55;;;;;;;2.13;1.23;;;;;;;23.56;42.69;99601.00;5131640;28;20071;-61
2022/05/13 04:45:26;;;;;;;2.28;1.10;;;;;;;23.56;42.56;99596.22;5131775;27;20411;-61
2022/05/13 04:48:16;;;;;;;1.65;1.00;;;;;;;23.56;42.80;99603.78;5131668;28;20047;-68
2022/05/13 04:51:00;;;;;;;1.85;1.10;;;;;;;23.54;42.90;99606.97;5115440;28;20039;-62
2022/05/13 04:53:32;;;;;;;2.10;1.00;;;;;;;23.54;42.88;99600.59;5131740;28;20043;-62
2022/05/13 04:55:59;;;;;;;2.13;1.00;;;;;;;23.52;42.97;99598.19;5131805;27;20039;-68
2022/05/13 04:58:25;;;;;;;2.20;1.20;;;;;;;23.55;43.05;99610.56;5131853;28;20057;-68
2022/05/13 05:00:53;;;;;;;1.80;1.10;;;;;;;23.54;43.08;99612.56;5131636;28;20084;-68
2022/05/13 05:03:21;;;;;;;1.45;0.95;;;;;;;23.55;43.14;99616.94;5131510;27;20046;-68
2022/05/13 05:05:46;;;;;;;2.05;1.10;;;;;;;23.54;43.46;99612.56;5131739;27;20073;-67
2022/05/13 05:08:13;;;;;;;1.98;1.17;;;;;;;23.55;43.41;99611.38;5131264;28;20087;-68
2022/05/13 05:10:40;;;;;;;1.45;1.02;;;;;;;23.55;43.37;99619.75;5131622;28;20503;-67
2022/05/13 05:13:09;;;;;;;2.10;1.30;;;;;;;23.57;43.38;99617.34;5130315;27;20126;-68
2022/05/13 05:15:38;;;;;;;1.73;1.13;;;;;;;23.59;43.33;99619.78;5131420;28;20046;-68
2022/05/13 05:18:04;;;;;;;1.60;1.02;;;;;;;23.57;43.33;99620.16;5131415;28;20043;-68
2022/05/13 05:20:30;;;;;;;1.90;1.20;;;;;;;23.58;43.47;99623.78;5131382;27;20039;-68
2022/05/13 05:22:57;;;;;;;2.25;1.30;;;;;;;23.57;43.56;99624.94;5130979;28;20039;-68
2022/05/13 05:25:28;;;;;;;1.65;1.10;;;;;;;23.58;43.52;99621.78;5131411;28;20051;-68
2022/05/13 05:27:54;;;;;;;1.77;1.20;;;;;;;23.58;43.46;99618.19;5131073;27;20071;-68
2022/05/13 05:30:20;;;;;;;2.13;1.25;;;;;;;23.59;43.56;99617.78;5131261;27;20123;-68
2022/05/13 05:32:45;;;;;;;1.75;1.10;;;;;;;23.60;43.77;99627.78;5131204;28;20081;-68
2022/05/13 05:35:14;;;;;;;2.17;1.40;;;;;;;23.59;43.61;99615.00;5131205;28;20091;-68
2022/05/13 05:37:40;;;;;;;2.10;1.20;;;;;;;23.60;43.68;99630.59;5131162;27;20436;-68
2022/05/13 05:40:06;;;;;;;1.95;1.17;;;;;;;23.63;43.96;99636.56;5131183;28;20057;-68
2022/05/13 05:42:31;;;;;;;2.13;1.20;;;;;;;23.61;43.79;99639.75;5130870;27;20039;-68
2022/05/13 05:44:57;;;;;;;1.67;1.00;;;;;;;23.61;43.76;99637.78;5131040;28;20095;-68
2022/05/13 05:47:23;;;;;;;1.98;1.20;;;;;;;23.63;43.58;99647.75;5131095;28;20118;-67
2022/05/13 05:49:49;;;;;;;1.90;1.20;;;;;;;23.61;43.74;99648.94;5131188;28;20047;-66
2022/05/13 05:52:18;;;;;;;1.40;1.10;;;;;;;23.57;43.97;99647.28;5131039;28;20061;-66
2022/05/13 05:57:27;;;;;;;1.60;1.10;;;;;;;23.56;43.95;99646.47;5130811;28;20054;-67
2022/05/13 05:59:53;;;;;;;1.90;1.20;;;;;;;23.55;44.11;99647.66;5130829;28;20043;-67
2022/05/13 06:02:18;;;;;;;2.60;1.30;;;;;;;23.58;44.08;99640.53;5130725;28;20046;-68
2022/05/13 06:04:44;;;;;;;1.85;1.10;;;;;;;23.57;44.17;99644.47;5130659;28;20043;-67
2022/05/13 06:07:13;;;;;;;1.95;1.10;;;;;;;23.54;44.36;99646.06;5130564;28;20043;-67
2022/05/13 06:09:40;;;;;;;2.60;1.42;;;;;;;23.54;44.26;99648.06;5130600;27;20499;-67
2022/05/13 06:12:07;;;;;;;2.42;1.38;;;;;;;23.55;44.41;99649.66;5130486;27;20047;-67
2022/05/13 06:14:32;;;;;;;5.07;1.30;;;;;;;23.59;44.17;99656.88;5130264;27;20057;-68
2022/05/13 06:16:58;;;;;;;2.75;1.30;;;;;;;23.59;44.41;99650.50;5113851;27;20035;-68
2022/05/13 06:19:24;;;;;;;2.60;1.38;;;;;;;23.57;44.38;99650.06;5128977;28;20121;-70
2022/05/13 06:21:51;;;;;;;7.75;1.42;;;;;;;23.58;44.25;99655.28;5130564;28;20069;-69
2022/05/13 06:24:18;;;;;;;5.05;1.38;;;;;;;23.60;44.51;99649.31;5129126;27;20051;-69
2022/05/13 06:26:48;;;;;;;3.03;1.50;;;;;;;23.61;44.42;99650.94;5115718;27;20130;-69
2022/05/13 06:29:14;;;;;;;2.58;1.30;;;;;;;23.60;44.39;99650.13;5113365;28;20047;-69
2022/05/13 06:31:40;;;;;;;2.78;1.60;;;;;;;23.61;44.36;99651.72;5113560;28;20043;-69
2022/05/13 06:34:06;;;;;;;5.35;1.88;;;;;;;23.62;44.29;99646.94;5114761;27;20096;-62
2022/05/13 06:36:31;;;;;;;2.65;1.42;;;;;;;23.63;44.32;99653.34;5113714;28;20048;-62
2022/05/13 06:38:58;;;;;;;4.07;1.30;;;;;;;23.64;44.32;99646.56;5110753;28;20035;-69
2022/05/13 06:41:24;;;;;;;5.90;1.50;;;;;;;23.66;44.27;99647.78;5113036;27;20049;-69
2022/05/13 06:43:50;;;;;;;2.90;1.38;;;;;;;23.69;44.13;99646.19;5118319;28;20601;-69
2022/05/13 06:46:15;;;;;;;4.78;1.52;;;;;;;23.68;44.04;99650.97;5120453;27;20552;-69
2022/05/13 06:48:41;;;;;;;1.98;1.23;;;;;;;23.70;43.95;99642.22;5120127;28;20529;-69
2022/05/13 06:51:06;;;;;;;2.72;1.60;;;;;;;23.71;43.93;99646.59;5121449;28;20047;-70
2022/05/13 06:53:32;;;;;;;5.60;1.77;;;;;;;23.76;43.88;99643.44;5108472;27;20069;-69
2022/05/13 06:55:57;;;;;;;7.20;1.80;;;;;;;23.82;43.88;99644.69;5109170;27;20131;-68
2022/05/13 06:58:23;;;;;;;3.00;1.50;;;;;;;23.85;44.09;99646.69;5101175;28;20044;-69
2022/05/13 07:00:48;;;;;;;2.92;1.45;;;;;;;23.87;43.78;99647.13;5103999;28;20035;-67
2022/05/13 07:03:16;;;;;;;2.95;1.77;;;;;;;23.86;43.76;99648.28;5098305;28;20044;-70
2022/05/13 07:05:42;;;;;;;4.60;1.50;;;;;;;23.89;43.80;99650.31;5091387;27;20055;-69
2022/05/13 07:08:08;;;;;;;2.90;1.50;;;;;;;23.91;43.74;99647.94;5104793;28;20055;-69
2022/05/13 07:10:34;;;;;;;2.33;1.50;;;;;;;23.92;43.61;99638.34;5109501;27;20051;-70
2022/05/13 07:13:04;;;;;;;3.00;1.40;;;;;;;23.95;43.51;99637.59;5110972;27;20592;-71
2022/05/13 07:15:30;;;;;;;2.22;1.30;;;;;;;23.95;43.42;99628.41;5099776;28;20104;-70
2022/05/13 07:17:56;;;;;;;3.55;1.40;;;;;;;23.98;43.32;99636.00;5108639;27;20039;-62
2022/05/13 07:20:23;;;;;;;5.07;1.30;;;;;;;23.98;43.20;99633.19;5101483;27;20457;-63
2022/05/13 07:22:48;;;;;;;2.30;1.40;;;;;;;23.99;43.25;99638.41;5102827;28;20036;-64
2022/05/13 07:25:14;;;;;;;1.77;1.17;;;;;;;24.02;43.23;99642.41;5098518;28;20530;-65
2022/05/13 07:27:39;;;;;;;2.58;1.30;;;;;;;24.03;43.21;99633.63;5098914;27;20430;-64
2022/05/13 07:30:05;;;;;;;2.38;1.23;;;;;;;24.03;43.15;99625.25;5098707;27;20071;-63
2022/05/13 07:32:31;;;;;;;4.07;1.20;;;;;;;24.07;42.99;99628.84;5102435;28;20042;-64
2022/05/13 07:34:56;;;;;;;2.80;1.30;;;;;;;24.07;43.04;99628.84;5101238;27;20127;-64
2022/05/13 07:37:22;;;;;;;3.45;1.38;;;;;;;24.08;42.90;99624.09;5099511;27;20047;-64
2022/05/13 07:42:32;;;;;;;2.08;1.20;;;;;;;24.12;42.83;99628.47;5102957;27;20094;-62
2022/05/13 07:44:59;;;;;;;2.58;1.13;;;;;;;24.14;42.82;99628.88;5100644;27;20048;-61
2022/05/13 07:47:26;;;;;;;2.42;1.27;;;;;;;24.15;42.78;99627.72;5106950;27;20051;-64
2022/05/13 07:49:51;;;;;;;2.55;1.10;;;;;;;24.16;42.68;99618.13;5106925;27;20047;-64
2022/05/13 07:52:17;;;;;;;2.33;1.20;;;;;;;24.17;42.85;99619.72;5097500;28;20145;-65
2022/05/13 07:54:42;;;;;;;4.45;1.40;;;;;;;24.20;43.11;99617.34;5111020;27;20063;-62
2022/05/13 07:57:08;;;;;;;3.75;1.20;;;;;;;24.22;43.07;99620.53;5104485;28;20142;-63
2022/05/13 08:00:24;;;;;;;5.35;1.38;;;;;;;24.24;43.03;99620.97;5096992;28;20435;-70
2022/05/13 08:02:19;;;;;;;3.00;1.52;;;;;;;24.24;43.00;99621.75;5100403;28;20135;-68
2022/05/13 08:04:44;;;;;;;2.50;1.30;;;;;;;24.26;43.02;99621.34;5101854;28;20127;-63
2022/05/13 08:07:10;;;;;;;3.10;1.63;;;;;;;24.28;42.87;99616.16;5092728;28;20531;-64
2022/05/13 08:09:35;;;;;;;5.00;1.30;;;;;;;24.30;43.17;99622.19;5099576;28;20079;-63
2022/05/13 08:12:01;;;;;;;3.20;1.50;;;;;;;24.33;43.23;99624.22;5100682;27;20122;-64
2022/05/13 08:14:26;;;;;;;3.03;1.50;;;;;;;24.34;43.18;99620.22;5105199;28;20057;-59
2022/05/13 08:16:52;;;;;;;4.93;1.30;;;;;;;24.37;42.92;99619.44;5111460;27;20034;-70
2022/05/13 08:19:17;;;;;;;4.47;1.38;;;;;;;24.39;42.82;99623.44;5110999;27;20093;-62
2022/05/13 08:21:43;;;;;;;2.08;1.30;;;;;;;24.39;42.69;99614.25;5107229;28;20040;-68
2022/05/13 08:24:08;;;;;;;3.15;1.40;;;;;;;24.40;42.88;99608.25;5092873;28;20040;-70
2022/05/13 08:26:35;;;;;;;2.75;1.45;;;;;;;24.41;42.63;99606.25;5107114;27;20032;-68
2022/05/13 08:29:00;;;;;;;4.57;1.30;;;;;;;24.43;42.75;99606.66;5094260;28;20100;-69
2022/05/13 08:31:26;;;;;;;2.58;1.40;;;;;;;24.44;42.60;99605.50;5111626;28;20036;-68
2022/05/13 08:33:51;;;;;;;4.78;1.50;;;;;;;24.43;42.39;99610.28;5107270;28;21210;-63
2022/05/13 08:36:17;;;;;;;3.97;1.67;;;;;;;24.44;42.44;99605.50;5109412;28;20042;-64
2022/05/13 08:38:43;;;;;;;2.53;1.40;;;;;;;24.46;42.38;99600.28;5111165;28;20048;-63
2022/05/13 08:41:19;;;;;;;3.30;1.50;;;;;;;24.47;42.27;99585.13;5098244;28;20135;-63
2022/05/13 08:43:51;;;;;;;2.67;1.27;;;;;;;24.48;42.32;99583.91;5103063;27;20502;-64
2022/05/13 08:46:16;;;;;;;4.25;1.40;;;;;;;24.50;42.29;99587.09;5102313;28;20127;-62
2022/05/13 08:49:00;;;;;;;2.75;1.27;;;;;;;24.53;42.51;99591.13;5100377;27;20135;-62
2022/05/13 08:52:04;;;;;;;2.35;1.30;;;;;;;24.54;42.24;99590.72;5109276;28;20422;-64
2022/05/13 08:54:35;;;;;;;4.32;1.33;;;;;;;24.58;42.44;99585.94;5105550;28;20044;-66
2022/05/13 08:57:08;;;;;;;2.78;1.20;;;;;;;24.60;42.44;99586.34;5099817;28;20370;-62
2022/05/13 08:59:49;;;;;;;2.15;1.25;;;;;;;24.64;42.36;99594.72;5110123;27;20039;-62
2022/05/13 09:02:32;;;;;;;3.85;1.40;;;;;;;24.64;42.36;99584.34;5114680;28;20078;-61
2022/05/13 09:05:03;;;;;;;3.38;1.55;;;;;;;24.66;42.50;99581.16;5109014;28;20050;-63
2022/05/13 09:07:29;;;;;;;5.13;2.47;;;;;;;24.74;42.21;99587.56;5082678;28;20060;-63
2022/05/13 09:10:06;;;;;;;4.75;2.80;;;;;;;24.79;41.92;99587.16;5058546;28;20048;-64
2022/05/13 09:12:34;;;;;;;9.70;5.47;;;;;;;24.79;41.50;99587.16;5057114;28;20065;-63
2022/05/13 09:15:00;;;;;;;13.38;6.15;;;;;;;24.68;41.71;99579.56;5055008;28;20044;-62
2022/05/13 09:17:25;;;;;;;9.35;4.88;;;;;;;24.62;42.00;99583.94;5057593;28;20041;-60
2022/05/13 09:20:06;;;;;;;7.53;4.10;;;;;;;24.57;42.41;99578.72;5061524;28;20044;-63
2022/05/13 09:22:42;;;;;;;5.80;3.50;;;;;;;24.56;42.54;99581.94;5052431;28;20427;-64
2022/05/13 09:25:16;;;;;;;5.95;3.22;;;;;;;24.54;42.53;99570.34;5061755;28;20051;-64
2022/05/13 09:27:47;;;;;;;4.38;3.00;;;;;;;24.53;42.69;99566.75;5062645;28;20048;-73
2022/05/13 09:30:18;;;;;;;4.22;2.85;;;;;;;24.53;42.88;99583.53;5062057;28;20459;-71
2022/05/13 09:32:44;;;;;;;4.28;2.72;;;;;;;24.54;42.80;99582.34;5064805;28;20094;-72
2022/05/13 09:35:34;;;;;;;4.88;2.33;;;;;;;24.55;42.83;99569.94;5060394;28;20052;-72
2022/05/13 09:38:13;;;;;;;5.95;2.30;;;;;;;24.57;43.02;99575.94;5051906;28;20760;-68
2022/05/13 09:40:38;;;;;;;4.07;2.00;;;;;;;24.57;42.81;99567.53;5065558;28;20033;-71
2022/05/13 09:43:04;;;;;;;6.22;1.77;;;;;;;24.63;42.56;99562.38;5056641;28;20115;-72
2022/05/13 09:45:33;;;;;;;3.13;2.13;;;;;;;24.64;42.75;99573.16;5059421;28;20043;-71
2022/05/13 09:48:17;;;;;;;5.22;2.08;;;;;;;24.60;42.56;99561.16;5057339;28;20053;-73
2022/05/13 09:50:53;;;;;;;3.72;1.65;;;;;;;24.60;42.56;99563.16;5060501;28;20138;-73
2022/05/13 09:53:21;;;;;;;4.10;1.70;;;;;;;24.63;42.22;99557.56;5067865;28;20078;-71
2022/05/13 09:55:51;;;;;;;3.92;1.50;;;;;;;24.63;42.01;99553.97;5063955;28;20051;-62
2022/05/13 09:58:24;;;;;;;3.15;1.70;;;;;;;24.64;42.01;99545.19;5067775;28;20040;-63
2022/05/13 10:00:57;;;;;;;;;;;;;;;24.67;41.54;99547.19;5047176;28;20049;-63
2022/05/13 10:03:36;;;;;;;3.67;1.50;;;;;;;24.65;41.59;99534.81;5081436;28;20007;-63
2022/05/13 10:06:17;;;;;;;6.05;1.60;;;;;;;24.64;41.64;99534.00;5079576;28;20097;-61
2022/05/13 10:08:55;;;;;;;2.47;1.35;;;;;;;24.64;41.78;99528.41;5057895;28;20052;-63
2022/05/13 10:14:36;;;;;;;4.05;1.70;;;;;;;24.66;41.37;99514.84;5071373;28;20091;-62
2022/05/13 10:17:11;;;;;;;5.45;1.45;;;;;;;24.61;41.13;99512.44;5062995;28;20048;-64
2022/05/13 10:19:46;;;;;;;5.88;1.30;;;;;;;24.62;41.07;99519.63;5068209;28;20045;-65
2022/05/13 10:22:15;;;;;;;5.13;1.48;;;;;;;24.62;41.21;99511.22;5083639;28;20040;-64
2022/05/13 10:25:05;;;;;;;3.58;1.50;;;;;;;24.60;41.21;99522.03;5082907;28;20040;-65
2022/05/13 10:27:36;;;;;;;3.55;1.17;;;;;;;24.60;41.22;99522.03;5082170;28;20044;-65
2022/05/13 10:30:31;;;;;;;9.27;1.40;;;;;;;24.59;41.11;99512.03;5073908;28;20405;-65
2022/05/13 10:33:08;;;;;;;3.53;1.27;;;;;;;24.60;41.12;99507.25;5069791;28;20103;-61
2022/05/13 10:36:01;;;;;;;1.83;1.10;;;;;;;24.60;40.93;99505.25;5073707;28;20091;-61
2022/05/13 10:38:56;;;;;;;3.28;1.35;;;;;;;24.63;41.18;99507.22;5068538;28;20139;-61
2022/05/13 10:41:30;;;;;;;5.50;1.23;;;;;;;24.62;41.20;99502.84;5059752;28;20099;-62
2022/05/13 10:44:07;;;;;;;3.08;1.40;;;;;;;24.63;41.22;99506.44;5068149;28;20051;-66
2022/05/13 10:46:55;;;;;;;3.75;1.08;;;;;;;24.61;41.14;99506.84;5064063;28;20508;-66
2022/05/13 10:49:23;;;;;;;1.95;1.20;;;;;;;24.61;41.12;99501.25;5083006;28;20072;-65
2022/05/13 10:52:05;;;;;;;3.05;1.30;;;;;;;24.62;41.05;99504.84;5087989;28;20051;-66
2022/05/13 10:54:47;;;;;;;2.22;1.25;;;;;;;24.60;41.48;99494.06;5063252;28;20051;-66
2022/05/13 10:57:44;;;;;;;2.65;1.10;;;;;;;24.62;41.08;99499.25;5084228;28;20125;-66
2022/05/13 11:00:12;;;;;;;2.05;1.10;;;;;;;24.63;41.21;99504.44;5069920;28;20117;-66
2022/05/13 11:02:44;;;;;;;2.00;1.10;;;;;;;24.64;41.05;99503.22;5085525;28;20052;-66
2022/05/13 11:05:26;;;;;;;2.13;1.30;;;;;;;24.63;40.96;99503.63;5057943;28;20041;-66
2022/05/13 11:08:12;;;;;;;1.63;0.97;;;;;;;24.64;41.02;99506.03;5067751;28;20051;-65
2022/05/13 11:10:59;;;;;;;1.92;1.10;;;;;;;24.65;40.91;99502.06;5055309;28;20131;-65
2022/05/13 11:14:02;;;;;;;2.25;1.20;;;;;;;24.66;40.60;99498.06;5079085;28;20452;-65
2022/05/13 11:16:49;;;;;;;1.70;1.02;;;;;;;24.66;40.92;99492.47;5057758;28;20060;-65
2022/05/13 11:19:34;;;;;;;2.42;1.20;;;;;;;24.66;40.95;99486.88;5075931;28;20056;-65
2022/05/13 11:22:08;;;;;;;1.52;0.93;;;;;;;24.68;40.85;99478.06;5063639;28;20045;-64
2022/05/13 11:27:36;;;;;;;2.25;1.10;;;;;;;24.68;40.82;99481.66;5077911;28;20055;-66
2022/05/13 11:30:31;;;;;;;2.67;0.95;;;;;;;24.71;40.85;99478.06;5067695;28;20047;-65
2022/05/13 11:33:06;;;;;;;1.50;0.90;;;;;;;24.70;40.79;99478.47;5062039;28;20029;-65
2022/05/13 11:35:40;;;;;;;2.38;0.95;;;;;;;24.69;40.86;99480.47;5062080;28;20041;-65
2022/05/13 11:38:15;;;;;;;2.08;1.10;;;;;;;24.73;40.83;99480.47;5065161;28;20056;-65
2022/05/13 11:40:51;;;;;;;1.90;1.20;;;;;;;24.71;40.85;99472.47;5075672;28;20044;-65
2022/05/13 11:43:25;;;;;;;2.42;1.05;;;;;;;24.73;40.79;99483.28;5064851;28;20044;-65
2022/05/13 11:46:21;;;;;;;4.00;1.05;;;;;;;24.71;41.01;99482.84;5056142;28;20095;-67
2022/05/13 11:49:07;;;;;;;2.00;1.10;;;;;;;24.78;41.27;99479.25;5062399;28;20106;-68
2022/05/13 11:51:35;;;;;;;1.50;0.95;;;;;;;24.77;41.14;99472.88;5060594;28;20488;-65
2022/05/13 11:54:00;;;;;;;6.40;1.30;;;;;;;24.77;41.44;99481.25;5069129;28;20044;-67
2022/05/13 11:56:26;;;;;;;2.08;1.15;;;;;;;24.84;41.19;99486.06;5069349;28;20482;-68
2022/05/13 11:59:02;;;;;;;2.42;1.17;;;;;;;24.82;41.39;99478.06;5083400;28;20080;-66
2022/05/13 12:01:46;;;;;;;8.02;1.27;;;;;;;24.82;41.69;99474.47;5053677;28;20420;-67
2022/05/13 12:04:11;;;;;;;3.03;1.30;;;;;;;24.83;41.60;99479.66;5069447;28;20222;-67
2022/05/13 12:06:49;;;;;;;3.15;1.50;;;;;;;24.85;41.81;99474.44;5062612;28;20615;-69
2022/05/13 12:09:40;;;;;;;1.58;1.00;;;;;;;24.87;41.42;99476.88;5055331;28;21715;-71